PWSweather.com
Personal Weather Stations
Station Observations
NBW76
Silver Creek, North Bend, WA 98065

Silver CreekNorth Bend, WA 98065

Lat: 47.4993612, Lon: -121.7783245

Elevation: 443

Station Type: Davisd VP2 + Solar + UV + Webcam

Latest ConditionsUpdated 8:00:01 AM PDT Monday, Oct 23, 2017
Currently Today's Max Today's Min Today's Average
Temperature 46.7°F8.2°C 46.7°F8.2°C 43.1°F6.2°C 45.0°F7.2°C
Dew Point 45.1°F7.3°C 45.1°F7.3°C 41.8°F5.4°C 43.6°F6.4°C
Winds 2.3 mph ESE3.7 kmh ESE 3.5 mph SE5.6 kmh SE - 0.3 mph 0.5 kmh
Wind Gusts 3.5 mph5.6 kmh 3.5 mph5.6 kmh - -
Humidity 94% 95% 93% 95%
Pressure 30.58 in1035.6 mb 30.58 in1035.6 mb 30.44 in1030.8 mb -
Hour Temp Dew Point Humidity Winds Wind Gusts Pressure Precip Precip Rate Daily Precip Total
08:00 AM 46.7°F8.2°C 45.1°F7.3°C 94% 2.3 mph ESE3.7 kmh ESE 3.5 mph5.6 kmh 30.58 in1035.6 mb - 0.00 in0.0 mm 0.00 in0.0 mm
07:50 AM 46.4°F8.0°C 44.8°F7.1°C 94% Calm Calm -- 30.58 in1035.6 mb - 0.00 in0.0 mm 0.00 in0.0 mm
07:40 AM 46.5°F8.1°C 44.8°F7.1°C 94% 1.2 mph ESE1.9 kmh ESE 3.5 mph5.6 kmh 30.58 in1035.6 mb - 0.00 in0.0 mm 0.00 in0.0 mm
07:30 AM 46.3°F7.9°C 44.9°F7.2°C 95% 1.2 mph ESE1.9 kmh ESE 2.3 mph3.7 kmh 30.57 in1035.2 mb - 0.00 in0.0 mm 0.00 in0.0 mm
07:20 AM 46.0°F7.8°C 44.6°F7.0°C 95% 1.2 mph ESE1.9 kmh ESE 3.5 mph5.6 kmh 30.57 in1035.2 mb - 0.00 in0.0 mm 0.00 in0.0 mm
07:10 AM 45.9°F7.7°C 44.6°F7.0°C 95% Calm Calm 1.2 mph1.9 kmh 30.57 in1035.2 mb - 0.00 in0.0 mm 0.00 in0.0 mm
07:00 AM 46.2°F7.9°C 44.8°F7.1°C 95% Calm Calm 2.3 mph3.7 kmh 30.57 in1035.2 mb - 0.00 in0.0 mm 0.00 in0.0 mm
06:50 AM 46.0°F7.8°C 44.6°F7.0°C 95% Calm Calm -- 30.56 in1034.9 mb - 0.00 in0.0 mm 0.00 in0.0 mm
06:40 AM 45.5°F7.5°C 44.1°F6.7°C 95% 3.5 mph SE5.6 kmh SE 3.5 mph5.6 kmh 30.57 in1035.2 mb - 0.00 in0.0 mm 0.00 in0.0 mm
06:30 AM 45.1°F7.3°C 43.8°F6.6°C 95% Calm Calm -- 30.57 in1035.2 mb - 0.00 in0.0 mm 0.00 in0.0 mm
06:20 AM 45.4°F7.4°C 44.1°F6.7°C 95% Calm Calm 1.2 mph1.9 kmh 30.57 in1035.2 mb - 0.00 in0.0 mm 0.00 in0.0 mm
06:10 AM 45.7°F7.6°C 44.4°F6.9°C 95% 1.2 mph NE1.9 kmh NE 1.2 mph1.9 kmh 30.56 in1034.9 mb - 0.00 in0.0 mm 0.00 in0.0 mm
06:00 AM 45.8°F7.7°C 44.4°F6.9°C 95% Calm Calm -- 30.55 in1034.5 mb - 0.00 in0.0 mm 0.00 in0.0 mm
05:50 AM 46.2°F7.9°C 44.9°F7.2°C 95% 1.2 mph E1.9 kmh E 1.2 mph1.9 kmh 30.55 in1034.5 mb - 0.00 in0.0 mm 0.00 in0.0 mm
05:40 AM 46.5°F8.1°C 45.1°F7.3°C 95% Calm Calm -- 30.55 in1034.5 mb - 0.00 in0.0 mm 0.00 in0.0 mm
05:30 AM 46.2°F7.9°C 44.9°F7.2°C 95% Calm Calm 2.3 mph3.7 kmh 30.55 in1034.5 mb - 0.00 in0.0 mm 0.00 in0.0 mm
05:20 AM 45.9°F7.7°C 44.5°F6.9°C 95% Calm Calm -- 30.55 in1034.5 mb - 0.00 in0.0 mm 0.00 in0.0 mm
05:10 AM 45.5°F7.5°C 44.2°F6.8°C 95% Calm Calm 2.3 mph3.7 kmh 30.54 in1034.2 mb - 0.00 in0.0 mm 0.00 in0.0 mm
05:00 AM 45.1°F7.3°C 43.8°F6.6°C 95% Calm Calm -- 30.54 in1034.2 mb - 0.00 in0.0 mm 0.00 in0.0 mm
04:50 AM 45.1°F7.3°C 43.8°F6.6°C 95% Calm Calm -- 30.54 in1034.2 mb - 0.00 in0.0 mm 0.00 in0.0 mm
04:40 AM 45.1°F7.3°C 43.8°F6.6°C 95% Calm Calm -- 30.54 in1034.2 mb - 0.00 in0.0 mm 0.00 in0.0 mm
04:30 AM 45.1°F7.3°C 43.8°F6.6°C 95% Calm Calm -- 30.54 in1034.2 mb - 0.00 in0.0 mm 0.00 in0.0 mm
04:20 AM 45.8°F7.7°C 44.4°F6.9°C 95% 1.2 mph N1.9 kmh N 3.5 mph5.6 kmh 30.54 in1034.2 mb - 0.00 in0.0 mm 0.00 in0.0 mm
04:10 AM 45.5°F7.5°C 44.2°F6.8°C 95% Calm Calm -- 30.54 in1034.2 mb - 0.00 in0.0 mm 0.00 in0.0 mm
04:00 AM 45.1°F7.3°C 43.8°F6.6°C 95% Calm Calm 1.2 mph1.9 kmh 30.53 in1033.9 mb - 0.00 in0.0 mm 0.00 in0.0 mm
03:50 AM 45.2°F7.3°C 43.9°F6.6°C 95% Calm Calm -- 30.52 in1033.5 mb - 0.00 in0.0 mm 0.00 in0.0 mm
03:40 AM 45.4°F7.4°C 44.1°F6.7°C 95% Calm Calm 2.3 mph3.7 kmh 30.52 in1033.5 mb - 0.00 in0.0 mm 0.00 in0.0 mm
03:30 AM 46.4°F8.0°C 45.0°F7.2°C 95% Calm Calm -- 30.52 in1033.5 mb - 0.00 in0.0 mm 0.00 in0.0 mm
03:20 AM 44.9°F7.2°C 43.6°F6.4°C 95% Calm Calm -- 30.52 in1033.5 mb - 0.00 in0.0 mm 0.00 in0.0 mm
03:10 AM 43.4°F6.3°C 42.1°F5.6°C 95% Calm Calm -- 30.53 in1033.9 mb - 0.00 in0.0 mm 0.00 in0.0 mm
03:00 AM 43.4°F6.3°C 42.1°F5.6°C 95% Calm Calm -- 30.53 in1033.9 mb - 0.00 in0.0 mm 0.00 in0.0 mm
02:50 AM 43.1°F6.2°C 41.8°F5.4°C 95% Calm Calm -- 30.53 in1033.9 mb - 0.00 in0.0 mm 0.00 in0.0 mm
02:40 AM 43.2°F6.2°C 41.9°F5.5°C 95% Calm Calm -- 30.52 in1033.5 mb - 0.00 in0.0 mm 0.00 in0.0 mm
02:30 AM 43.1°F6.2°C 41.8°F5.4°C 95% Calm Calm -- 30.52 in1033.5 mb - 0.00 in0.0 mm 0.00 in0.0 mm
02:20 AM 43.2°F6.2°C 41.9°F5.5°C 95% Calm Calm -- 30.52 in1033.5 mb - 0.00 in0.0 mm 0.00 in0.0 mm
02:10 AM 43.1°F6.2°C 41.8°F5.4°C 95% Calm Calm -- 30.51 in1033.2 mb - 0.00 in0.0 mm 0.00 in0.0 mm
02:00 AM 43.4°F6.3°C 41.8°F5.4°C 94% Calm Calm -- 30.50 in1032.8 mb - 0.00 in0.0 mm 0.00 in0.0 mm
01:50 AM 43.4°F6.3°C 41.8°F5.4°C 94% Calm Calm -- 30.50 in1032.8 mb - 0.00 in0.0 mm 0.00 in0.0 mm
01:40 AM 43.5°F6.4°C 41.9°F5.5°C 94% Calm Calm -- 30.49 in1032.5 mb - 0.00 in0.0 mm 0.00 in0.0 mm
01:30 AM 43.9°F6.6°C 42.3°F5.7°C 94% Calm Calm -- 30.49 in1032.5 mb - 0.00 in0.0 mm 0.00 in0.0 mm
01:20 AM 44.0°F6.7°C 42.4°F5.8°C 94% Calm Calm -- 30.48 in1032.2 mb - 0.00 in0.0 mm 0.00 in0.0 mm
01:10 AM 44.3°F6.8°C 42.7°F5.9°C 94% Calm Calm -- 30.48 in1032.2 mb - 0.00 in0.0 mm 0.00 in0.0 mm
01:00 AM 44.2°F6.8°C 42.6°F5.9°C 94% Calm Calm -- 30.47 in1031.8 mb - 0.00 in0.0 mm 0.00 in0.0 mm
12:50 AM 44.7°F7.1°C 43.1°F6.2°C 94% Calm Calm -- 30.47 in1031.8 mb - 0.00 in0.0 mm 0.00 in0.0 mm
12:40 AM 44.7°F7.1°C 43.1°F6.2°C 94% Calm Calm -- 30.46 in1031.5 mb - 0.00 in0.0 mm 0.00 in0.0 mm
12:30 AM 45.1°F7.3°C 43.2°F6.2°C 93% Calm Calm 1.2 mph1.9 kmh 30.46 in1031.5 mb - 0.00 in0.0 mm 0.00 in0.0 mm
12:20 AM 45.4°F7.4°C 43.5°F6.4°C 93% 2.3 mph NE3.7 kmh NE 3.5 mph5.6 kmh 30.46 in1031.5 mb - 0.00 in0.0 mm 0.00 in0.0 mm
12:10 AM 45.6°F7.6°C 43.7°F6.5°C 93% Calm Calm -- 30.45 in1031.2 mb - 0.00 in0.0 mm 0.00 in0.0 mm
12:00 AM 45.8°F7.7°C 43.9°F6.6°C 93% Calm Calm -- 30.44 in1030.8 mb - 0.00 in0.0 mm 0.00 in0.0 mm